Time;durP1;ratioP1;P1;durP2;ratioP2;P2;SDS_P1;SDS_P2;PMS_P1;PMS_P2;Temp;Humidity;BMP_temperature;BMP_pressure;BME280_temperature;BME280_humidity;BME280_pressure;Samples;Min_cycle;Max_cycle;Signal;HPM_P1;HPM_P2
2021/07/02 00:08:05;;;;;;;10.98;3.47;;;15.80;99.90;;;;;;20943932;28;20036;-49
2021/07/02 00:18:06;;;;;;;11.35;3.78;;;15.70;99.90;;;;;;20946747;28;20048;-49
2021/07/02 00:28:08;;;;;;;11.45;3.42;;;15.70;99.90;;;;;;20945274;28;20043;-50
2021/07/02 00:38:09;;;;;;;7.10;3.08;;;15.60;99.90;;;;;;20945177;28;20059;-49
2021/07/02 00:48:10;;;;;;;13.98;4.82;;;15.60;99.90;;;;;;20946155;28;20036;-49
2021/07/02 00:58:11;;;;;;;6.07;2.95;;;15.70;99.90;;;;;;20946239;28;20037;-49
2021/07/02 01:08:13;;;;;;;14.75;2.72;;;15.50;99.90;;;;;;20944640;28;20043;-49
2021/07/02 01:18:14;;;;;;;9.70;3.13;;;15.60;99.90;;;;;;20934978;28;20036;-49
2021/07/02 01:28:17;;;;;;;9.52;3.40;;;15.60;99.90;;;;;;20944483;28;20033;-49
2021/07/02 01:38:18;;;;;;;6.90;2.55;;;15.70;99.90;;;;;;20942511;28;20310;-49
2021/07/02 01:48:21;;;;;;;6.97;2.55;;;15.60;99.90;;;;;;20937594;28;20440;-49
2021/07/02 01:58:23;;;;;;;15.13;3.28;;;15.40;99.90;;;;;;20924037;28;20043;-49
2021/07/02 02:08:25;;;;;;;10.98;3.25;;;15.50;99.90;;;;;;20927668;28;20117;-49
2021/07/02 02:18:26;;;;;;;5.45;2.17;;;15.50;99.90;;;;;;20894687;28;20041;-49
2021/07/02 02:28:27;;;;;;;7.30;2.50;;;15.60;99.90;;;;;;20909988;28;20040;-49
2021/07/02 02:38:29;;;;;;;7.03;2.33;;;15.50;99.90;;;;;;20921627;28;20133;-49
2021/07/02 02:48:30;;;;;;;9.20;3.88;;;15.70;99.90;;;;;;20908261;28;20087;-49
2021/07/02 02:58:31;;;;;;;8.13;2.97;;;15.50;99.90;;;;;;20917693;28;20092;-49
2021/07/02 03:08:33;;;;;;;7.70;3.63;;;15.30;99.90;;;;;;20919947;28;20029;-49
2021/07/02 03:18:34;;;;;;;10.65;4.20;;;15.40;99.90;;;;;;20911042;28;20051;-49
2021/07/02 03:28:36;;;;;;;11.02;3.63;;;15.40;99.90;;;;;;20904848;28;20508;-49
2021/07/02 03:38:37;;;;;;;10.45;4.03;;;15.20;99.90;;;;;;20941366;28;20063;-49
2021/07/02 03:48:38;;;;;;;11.13;4.00;;;15.20;99.90;;;;;;20941695;28;20041;-49
2021/07/02 03:58:39;;;;;;;8.40;2.72;;;15.20;99.90;;;;;;20912225;28;20044;-49
2021/07/02 04:08:40;;;;;;;10.23;3.65;;;15.30;99.90;;;;;;20925036;28;20053;-49
2021/07/02 04:18:42;;;;;;;9.70;3.35;;;15.40;99.90;;;;;;20932160;28;20048;-49
2021/07/02 04:28:43;;;;;;;8.38;3.25;;;15.30;99.90;;;;;;20940646;28;20076;-49
2021/07/02 04:38:44;;;;;;;9.65;3.53;;;15.40;99.90;;;;;;20920439;28;20048;-49
2021/07/02 04:48:45;;;;;;;13.68;4.03;;;15.30;99.90;;;;;;20897161;28;20024;-49
2021/07/02 04:58:52;;;;;;;10.43;3.42;;;15.30;99.90;;;;;;20910803;28;20048;-49
2021/07/02 05:08:53;;;;;;;8.38;3.55;;;15.30;99.90;;;;;;20933988;28;20102;-49
2021/07/02 05:18:54;;;;;;;8.30;2.78;;;15.50;99.90;;;;;;20928255;28;20071;-49
2021/07/02 05:28:55;;;;;;;8.10;3.35;;;15.50;99.90;;;;;;20941396;28;20162;-49
2021/07/02 05:38:57;;;;;;;10.48;2.80;;;15.40;99.90;;;;;;20940587;28;20048;-49
2021/07/02 05:48:58;;;;;;;9.27;2.65;;;15.60;99.90;;;;;;20944241;28;20040;-49
2021/07/02 05:59:00;;;;;;;17.38;3.30;;;15.70;99.90;;;;;;20928449;28;20128;-49
2021/07/02 06:09:01;;;;;;;9.05;3.05;;;15.70;99.90;;;;;;20919885;28;20041;-49
2021/07/02 06:19:02;;;;;;;8.02;2.92;;;15.70;99.90;;;;;;20907998;28;20127;-49
2021/07/02 06:29:04;;;;;;;13.48;4.70;;;15.60;99.90;;;;;;20948674;28;20047;-49
2021/07/02 06:39:06;;;;;;;15.60;7.07;;;15.90;99.90;;;;;;20931930;28;20055;-49
2021/07/02 06:49:07;;;;;;;13.40;4.05;;;15.90;99.90;;;;;;20918294;28;20029;-49
2021/07/02 06:59:08;;;;;;;9.77;3.72;;;15.90;99.90;;;;;;20910380;28;20036;-49
2021/07/02 07:09:09;;;;;;;9.52;3.72;;;16.00;99.90;;;;;;20930259;28;20356;-49
2021/07/02 07:19:10;;;;;;;11.77;3.72;;;16.00;99.90;;;;;;20895375;28;20499;-49
2021/07/02 07:29:12;;;;;;;10.05;3.05;;;16.20;99.90;;;;;;20886961;28;20132;-49
2021/07/02 07:39:13;;;;;;;10.07;3.55;;;16.10;99.90;;;;;;20828207;28;20053;-49
2021/07/02 07:49:14;;;;;;;8.35;3.95;;;16.00;99.90;;;;;;20831834;28;20036;-49
2021/07/02 07:59:16;;;;;;;8.75;3.35;;;16.10;99.90;;;;;;20843649;28;20042;-49
2021/07/02 08:09:18;;;;;;;6.97;3.08;;;16.10;99.90;;;;;;20827132;28;20111;-49
2021/07/02 08:19:19;;;;;;;10.73;3.60;;;16.10;99.90;;;;;;20879145;28;20210;-49
2021/07/02 08:29:26;;;;;;;7.35;2.85;;;16.20;99.90;;;;;;20892410;28;20048;-50
2021/07/02 08:39:27;;;;;;;8.40;3.03;;;16.20;99.90;;;;;;20920088;28;20043;-49
2021/07/02 08:49:31;;;;;;;6.47;2.70;;;16.20;99.90;;;;;;20917451;28;20040;-50
2021/07/02 08:59:32;;;;;;;9.27;4.32;;;16.30;99.90;;;;;;20905259;28;20055;-49
2021/07/02 09:09:54;;;;;;;15.43;3.10;;;16.60;99.90;;;;;;20919017;28;20051;-49
2021/07/02 09:20:03;;;;;;;8.55;3.60;;;16.50;99.90;;;;;;20910610;28;20045;-49
2021/07/02 09:30:12;;;;;;;6.65;2.47;;;16.60;99.90;;;;;;20915804;28;20033;-50
2021/07/02 09:40:23;;;;;;;3.85;1.40;;;16.30;99.90;;;;;;20882782;28;20214;-50
2021/07/02 09:50:29;;;;;;;3.90;1.40;;;16.40;99.90;;;;;;20908083;28;20284;-50
2021/07/02 10:00:51;;;;;;;6.60;1.95;;;16.60;99.90;;;;;;20887108;28;20130;-50
2021/07/02 10:10:54;;;;;;;3.78;1.88;;;16.80;99.90;;;;;;20876758;28;20044;-49
2021/07/02 10:20:59;;;;;;;3.53;1.52;;;17.80;99.90;;;;;;20909078;28;20129;-49
2021/07/02 10:31:02;;;;;;;3.25;1.50;;;18.30;99.90;;;;;;20912482;28;20052;-50
2021/07/02 10:41:16;;;;;;;3.72;1.55;;;18.10;99.90;;;;;;20903340;28;20044;-50
2021/07/02 10:51:36;;;;;;;9.77;2.47;;;18.00;99.90;;;;;;20912892;28;20381;-49
2021/07/02 11:01:57;;;;;;;5.95;2.42;;;17.80;99.90;;;;;;20903617;28;20121;-50
2021/07/02 11:12:08;;;;;;;5.68;1.90;;;17.70;99.90;;;;;;20900613;28;20097;-50
2021/07/02 11:22:23;;;;;;;5.57;2.65;;;18.20;99.90;;;;;;20897638;28;20220;-49
2021/07/02 11:32:31;;;;;;;5.13;2.40;;;18.60;99.90;;;;;;20889516;28;20154;-50
2021/07/02 11:42:32;;;;;;;5.45;1.92;;;19.30;99.90;;;;;;20905822;28;20041;-50
2021/07/02 11:52:37;;;;;;;3.00;1.20;;;19.30;99.90;;;;;;20905486;28;20036;-50
2021/07/02 12:02:47;;;;;;;5.78;2.35;;;19.40;99.90;;;;;;20909810;28;20068;-49
2021/07/02 12:12:48;;;;;;;6.07;1.95;;;20.00;99.90;;;;;;20918807;28;20060;-50
2021/07/02 12:23:01;;;;;;;3.83;1.77;;;19.90;99.90;;;;;;20851112;28;20041;-49
2021/07/02 12:33:02;;;;;;;5.60;1.50;;;20.60;99.90;;;;;;20832867;28;20057;-50
2021/07/02 12:43:04;;;;;;;3.83;1.40;;;20.50;99.90;;;;;;20841373;28;20037;-50
2021/07/02 13:03:27;;;;;;;4.03;1.38;;;22.20;99.90;;;;;;20830939;28;20178;-49
2021/07/02 13:13:35;;;;;;;3.97;2.08;;;21.80;99.90;;;;;;20808727;28;20037;-49
2021/07/02 13:23:39;;;;;;;4.65;1.83;;;22.40;99.90;;;;;;20900509;28;20051;-49
2021/07/02 13:33:40;;;;;;;4.45;1.77;;;21.40;99.90;;;;;;20899750;28;20076;-49
2021/07/02 13:43:54;;;;;;;3.80;1.83;;;21.30;99.90;;;;;;20899271;28;20140;-49
2021/07/02 13:53:56;;;;;;;3.33;1.40;;;21.00;99.90;;;;;;20905245;28;20051;-49
2021/07/02 14:03:57;;;;;;;4.47;1.80;;;22.10;99.90;;;;;;20899163;28;20044;-49
2021/07/02 14:13:58;;;;;;;6.07;1.90;;;22.70;99.90;;;;;;20883318;28;20125;-49
2021/07/02 14:23:59;;;;;;;2.85;1.00;;;22.50;99.90;;;;;;20903146;28;20068;-49
2021/07/02 14:34:02;;;;;;;4.80;1.63;;;22.30;99.90;;;;;;20915387;28;20055;-49
2021/07/02 14:44:04;;;;;;;4.00;1.48;;;22.60;99.90;;;;;;20900351;28;20036;-49
2021/07/02 14:54:05;;;;;;;2.75;1.30;;;22.70;99.90;;;;;;20920458;28;20064;-50
2021/07/02 15:04:06;;;;;;;5.43;2.50;;;22.40;99.90;;;;;;20883124;28;22349;-49
2021/07/02 15:14:08;;;;;;;3.90;1.65;;;22.00;99.90;;;;;;20868202;28;20104;-49
2021/07/02 15:24:09;;;;;;;5.95;2.03;;;21.50;99.90;;;;;;20789164;28;20040;-49
2021/07/02 15:34:10;;;;;;;5.90;2.00;;;21.60;99.90;;;;;;20805780;28;20050;-49
2021/07/02 15:44:11;;;;;;;3.95;1.83;;;21.50;99.90;;;;;;20784581;28;20069;-49
2021/07/02 15:54:13;;;;;;;4.05;2.00;;;21.40;99.90;;;;;;20808566;28;20119;-49
2021/07/02 16:04:14;;;;;;;5.70;2.45;;;21.40;99.90;;;;;;20805687;28;20369;-49
2021/07/02 16:14:15;;;;;;;6.80;2.50;;;21.40;99.90;;;;;;20802935;28;20229;-50
2021/07/02 16:24:16;;;;;;;6.15;2.88;;;21.10;99.90;;;;;;20877766;28;20040;-49
2021/07/02 16:34:17;;;;;;;6.80;2.47;;;21.60;99.90;;;;;;20881622;28;20048;-49
2021/07/02 16:44:19;;;;;;;6.30;2.50;;;21.20;99.90;;;;;;20867450;28;20041;-49
2021/07/02 16:54:20;;;;;;;5.57;1.88;;;20.90;99.90;;;;;;20876613;28;20048;-49
2021/07/02 17:04:22;;;;;;;4.97;2.17;;;20.50;99.90;;;;;;20884743;28;20122;-49
2021/07/02 17:14:27;;;;;;;5.50;2.33;;;20.30;99.90;;;;;;20884531;28;20044;-49
2021/07/02 17:24:29;;;;;;;5.35;2.25;;;20.40;99.90;;;;;;20897738;28;20033;-49
2021/07/02 17:34:30;;;;;;;4.88;2.40;;;20.50;99.90;;;;;;20889597;28;20058;-49
2021/07/02 17:44:31;;;;;;;5.60;2.35;;;20.50;99.90;;;;;;20867132;28;20037;-50
2021/07/02 17:54:32;;;;;;;5.68;2.30;;;20.70;99.90;;;;;;20863122;28;20134;-49
2021/07/02 18:04:33;;;;;;;4.95;2.67;;;21.00;99.90;;;;;;20870859;28;20049;-49
2021/07/02 18:14:35;;;;;;;6.72;2.92;;;20.90;99.90;;;;;;20894115;28;20058;-49
2021/07/02 18:24:36;;;;;;;4.43;2.05;;;20.70;99.90;;;;;;20872658;28;20036;-49
2021/07/02 18:34:39;;;;;;;6.00;2.40;;;20.50;99.90;;;;;;20809050;28;20435;-49
2021/07/02 18:44:40;;;;;;;3.30;1.63;;;20.20;99.90;;;;;;20834502;28;20044;-49
2021/07/02 18:54:41;;;;;;;12.00;3.22;;;20.00;99.90;;;;;;20773108;28;20052;-49
2021/07/02 19:04:42;;;;;;;8.57;2.17;;;19.80;99.90;;;;;;20805877;28;20119;-49
2021/07/02 19:14:44;;;;;;;3.92;1.67;;;19.60;99.90;;;;;;20841832;28;20045;-49
2021/07/02 19:24:45;;;;;;;5.20;2.22;;;19.30;99.90;;;;;;20692922;28;20042;-49
2021/07/02 19:34:46;;;;;;;5.55;2.92;;;19.20;99.90;;;;;;20727893;28;20059;-49
2021/07/02 19:44:48;;;;;;;5.28;2.58;;;19.10;99.90;;;;;;20703343;28;20037;-49
2021/07/02 19:54:49;;;;;;;5.18;2.42;;;19.00;99.90;;;;;;20732033;28;20043;-49
2021/07/02 20:04:50;;;;;;;7.82;1.52;;;18.80;99.90;;;;;;20759934;28;20045;-49
2021/07/02 20:14:51;;;;;;;4.53;1.65;;;18.50;99.90;;;;;;20773560;28;20041;-49
2021/07/02 20:24:53;;;;;;;6.45;2.78;;;18.20;99.90;;;;;;20695152;28;20053;-49
2021/07/02 20:34:54;;;;;;;4.32;1.73;;;18.10;99.90;;;;;;20701814;28;20057;-49
2021/07/02 20:44:55;;;;;;;7.28;2.35;;;17.80;99.90;;;;;;20707880;28;20038;-49
2021/07/02 20:54:56;;;;;;;5.57;2.50;;;17.70;99.90;;;;;;20662513;28;20056;-49
2021/07/02 21:04:58;;;;;;;4.75;2.15;;;17.60;99.90;;;;;;20785190;28;20037;-49
2021/07/02 21:15:00;;;;;;;8.00;3.08;;;17.30;99.90;;;;;;20809161;28;20112;-49
2021/07/02 21:25:03;;;;;;;7.10;2.83;;;17.10;99.90;;;;;;20777241;28;20480;-49
2021/07/02 21:35:05;;;;;;;8.30;3.42;;;17.00;99.90;;;;;;20805470;28;20527;-49
2021/07/02 21:45:09;;;;;;;6.13;2.33;;;17.00;99.90;;;;;;20797206;28;20807;-49
2021/07/02 21:55:10;;;;;;;4.85;2.45;;;16.90;99.90;;;;;;20793083;28;20037;-49
2021/07/02 22:05:12;;;;;;;7.18;2.47;;;16.80;99.90;;;;;;20800034;28;20039;-49
2021/07/02 22:15:13;;;;;;;6.03;2.63;;;16.60;99.90;;;;;;20797064;28;20033;-49
2021/07/02 22:25:14;;;;;;;6.80;2.38;;;16.50;99.90;;;;;;20795137;28;20044;-49
2021/07/02 22:35:16;;;;;;;7.25;3.20;;;16.40;99.90;;;;;;20883857;28;20048;-49
2021/07/02 22:45:17;;;;;;;7.53;3.35;;;16.30;99.90;;;;;;20883362;28;20476;-49
2021/07/02 22:55:18;;;;;;;7.20;2.60;;;16.20;99.90;;;;;;20881902;28;20043;-49
2021/07/02 23:05:19;;;;;;;4.30;2.15;;;16.20;99.90;;;;;;20863225;28;20053;-49
2021/07/02 23:15:21;;;;;;;5.60;2.45;;;16.00;99.90;;;;;;20876833;28;20043;-49
2021/07/02 23:25:22;;;;;;;6.40;2.50;;;15.90;99.90;;;;;;20879514;28;20091;-49
2021/07/02 23:35:23;;;;;;;5.88;2.28;;;16.00;99.90;;;;;;20885318;28;20578;-49
2021/07/02 23:45:25;;;;;;;5.80;2.25;;;15.90;99.90;;;;;;20848556;28;20381;-49
2021/07/02 23:55:27;;;;;;;5.93;2.28;;;15.70;99.90;;;;;;20905822;28;20052;-49
